createdAt,value
2019-05-11T00:00:56.405Z,8.60
2019-05-11T00:03:25.087Z,8.60
2019-05-11T00:05:53.787Z,8.60
2019-05-11T00:08:22.486Z,8.50
2019-05-11T00:10:51.187Z,8.50
2019-05-11T00:13:19.873Z,8.40
2019-05-11T00:15:48.611Z,8.30
2019-05-11T00:18:17.308Z,8.20
2019-05-11T00:20:45.996Z,8.20
2019-05-11T00:23:14.695Z,8.10
2019-05-11T00:25:43.380Z,8.10
2019-05-11T00:28:12.136Z,8.10
2019-05-11T00:30:40.816Z,8.10
2019-05-11T00:33:09.500Z,8.10
2019-05-11T00:35:38.199Z,8.20
2019-05-11T00:38:06.892Z,8.20
2019-05-11T00:40:35.598Z,8.20
2019-05-11T00:43:04.587Z,8.30
2019-05-11T00:45:33.280Z,8.30
2019-05-11T00:48:01.977Z,8.40
2019-05-11T00:50:39.123Z,8.40
2019-05-11T00:53:01.024Z,8.40
2019-05-11T00:55:29.727Z,8.40
2019-05-11T00:57:58.423Z,8.40
2019-05-11T01:00:27.299Z,8.40
2019-05-11T01:02:55.999Z,8.30
2019-05-11T01:05:24.905Z,8.30
2019-05-11T01:07:53.523Z,8.30
2019-05-11T01:10:29.030Z,8.30
2019-05-11T01:12:52.548Z,8.40
2019-05-11T01:15:21.238Z,8.40
2019-05-11T01:17:49.926Z,8.40
2019-05-11T01:20:19.124Z,8.40
2019-05-11T01:22:47.812Z,8.40
2019-05-11T01:25:16.615Z,8.30
2019-05-11T01:27:45.296Z,8.30
2019-05-11T01:30:14.386Z,8.30
2019-05-11T01:32:43.090Z,8.20
2019-05-11T01:35:12.076Z,8.10
2019-05-11T01:37:40.776Z,8.00
2019-05-11T01:40:09.875Z,7.90
2019-05-11T01:42:38.563Z,7.80
2019-05-11T01:45:07.967Z,7.70
2019-05-11T01:47:36.682Z,7.70
2019-05-11T01:50:05.372Z,7.70
2019-05-11T01:52:34.096Z,7.60
2019-05-11T01:55:02.791Z,7.60
2019-05-11T01:57:31.555Z,7.60
2019-05-11T02:00:00.223Z,7.60
2019-05-11T02:02:28.923Z,7.60
2019-05-11T02:05:15.772Z,7.60
2019-05-11T02:07:44.575Z,7.60
2019-05-11T02:10:13.471Z,7.60
2019-05-11T02:12:42.175Z,7.60
2019-05-11T02:15:10.965Z,7.50
2019-05-11T02:17:39.663Z,7.50
2019-05-11T02:20:08.448Z,7.50
2019-05-11T02:22:37.208Z,7.40
2019-05-11T02:25:06.992Z,7.40
2019-05-11T02:27:35.692Z,7.30
2019-05-11T02:30:05.588Z,7.10
2019-05-11T02:32:34.294Z,7.10
2019-05-11T02:35:03.099Z,7.00
2019-05-11T02:37:31.770Z,6.90
2019-05-11T02:40:00.464Z,6.80
2019-05-11T02:42:29.357Z,6.80
2019-05-11T02:44:58.056Z,6.80
2019-05-11T02:47:26.756Z,6.70
2019-05-11T02:49:55.444Z,6.70
2019-05-11T02:52:25.040Z,6.60
2019-05-11T02:54:55.901Z,6.50
2019-05-11T02:57:24.606Z,6.50
2019-05-11T02:59:53.404Z,6.40
2019-05-11T03:02:22.104Z,6.30
2019-05-11T03:04:50.788Z,6.30
2019-05-11T03:07:19.534Z,6.30
2019-05-11T03:09:48.235Z,6.20
2019-05-11T03:12:16.919Z,6.20
2019-05-11T03:14:45.625Z,6.10
2019-05-11T03:17:18.660Z,6.10
2019-05-11T03:19:47.377Z,6.00
2019-05-11T03:22:16.064Z,6.00
2019-05-11T03:24:44.751Z,6.00
2019-05-11T03:27:13.493Z,6.00
2019-05-11T03:29:42.349Z,6.00
2019-05-11T03:32:11.041Z,5.90
2019-05-11T03:34:39.736Z,6.00
2019-05-11T03:37:08.435Z,5.90
2019-05-11T03:39:37.225Z,5.90
2019-05-11T03:42:14.624Z,5.90
2019-05-11T03:44:36.269Z,5.90
2019-05-11T03:47:04.966Z,5.90
2019-05-11T03:49:33.664Z,5.90
2019-05-11T03:52:02.364Z,5.90
2019-05-11T03:54:31.052Z,5.90
2019-05-11T03:56:59.759Z,6.00
2019-05-11T03:59:28.459Z,6.00
2019-05-11T04:01:57.160Z,6.00
2019-05-11T04:04:25.881Z,6.10
2019-05-11T04:06:54.572Z,6.20
2019-05-11T04:09:23.424Z,6.30
2019-05-11T04:11:52.128Z,6.30
2019-05-11T04:14:20.808Z,6.40
2019-05-11T04:16:49.522Z,6.50
2019-05-11T04:19:18.191Z,6.60
2019-05-11T04:21:46.963Z,6.70
2019-05-11T04:24:15.647Z,6.60
2019-05-11T04:26:44.335Z,6.60
2019-05-11T04:29:13.038Z,6.60
2019-05-11T04:31:41.800Z,6.60
2019-05-11T04:34:10.497Z,6.60
2019-05-11T04:36:39.192Z,6.60
2019-05-11T04:39:07.896Z,6.60
2019-05-11T04:41:36.668Z,6.60
2019-05-11T04:44:05.348Z,6.60
2019-05-11T04:46:34.048Z,6.60
2019-05-11T04:49:02.732Z,6.60
2019-05-11T04:51:31.436Z,6.60
2019-05-11T04:54:00.127Z,6.70
2019-05-11T04:56:28.820Z,6.90
2019-05-11T04:58:57.520Z,7.60
2019-05-11T05:01:26.208Z,9.30
2019-05-11T05:03:57.783Z,10.90
2019-05-11T05:06:25.323Z,12.00
2019-05-11T05:08:58.112Z,13.30
2019-05-11T05:11:24.375Z,14.60
2019-05-11T05:13:53.621Z,15.70
2019-05-11T05:16:22.475Z,17.00
2019-05-11T05:18:51.175Z,17.30
2019-05-11T05:21:19.879Z,17.60
2019-05-11T05:23:48.587Z,17.10
2019-05-11T05:26:17.343Z,17.30
2019-05-11T05:28:46.145Z,17.80
2019-05-11T05:31:14.831Z,18.10
2019-05-11T05:33:43.539Z,18.20
2019-05-11T05:36:12.229Z,18.50
2019-05-11T05:38:40.935Z,18.00
2019-05-11T05:41:09.635Z,17.90
2019-05-11T05:43:38.263Z,17.80
2019-05-11T05:46:06.959Z,18.10
2019-05-11T05:48:35.655Z,17.00
2019-05-11T05:51:04.376Z,15.20
2019-05-11T05:53:33.091Z,15.50
2019-05-11T05:56:01.841Z,15.90
2019-05-11T05:58:30.515Z,16.80
2019-05-11T06:00:59.217Z,18.20
2019-05-11T06:03:27.921Z,18.80
2019-05-11T06:05:56.619Z,18.80
2019-05-11T06:08:25.319Z,19.20
2019-05-11T06:10:54.028Z,19.70
2019-05-11T06:13:22.815Z,20.30
2019-05-11T06:15:51.511Z,18.10
2019-05-11T06:18:20.235Z,16.20
2019-05-11T06:20:48.839Z,14.50
2019-05-11T06:23:17.533Z,13.50
2019-05-11T06:25:46.235Z,15.20
2019-05-11T06:28:14.943Z,16.60
2019-05-11T06:30:43.652Z,17.60
2019-05-11T06:33:12.387Z,19.60
2019-05-11T06:35:41.104Z,20.80
2019-05-11T06:38:09.799Z,22.90
2019-05-11T06:40:38.499Z,22.00
2019-05-11T06:43:07.207Z,20.20
2019-05-11T06:45:35.908Z,19.00
2019-05-11T06:48:04.611Z,19.10
2019-05-11T06:50:33.376Z,20.20
2019-05-11T06:53:02.118Z,19.60
2019-05-11T06:55:30.908Z,21.10
2019-05-11T06:57:59.628Z,22.20
2019-05-11T07:00:28.695Z,22.50
2019-05-11T07:02:57.404Z,22.90
2019-05-11T07:05:26.148Z,23.70
2019-05-11T07:07:54.917Z,23.90
2019-05-11T07:10:23.648Z,22.70
2019-05-11T07:12:52.348Z,23.30
2019-05-11T07:15:21.085Z,22.40
2019-05-11T07:17:49.711Z,22.50
2019-05-11T07:20:18.408Z,23.40
2019-05-11T07:22:47.163Z,22.20
2019-05-11T07:25:15.860Z,22.50
2019-05-11T07:27:44.481Z,23.50
2019-05-11T07:30:13.458Z,25.10
2019-05-11T07:32:42.195Z,25.30
2019-05-11T07:35:10.900Z,25.00
2019-05-11T07:37:39.607Z,24.80
2019-05-11T07:40:08.811Z,25.40
2019-05-11T07:42:38.129Z,24.80
2019-05-11T07:45:09.012Z,25.10
2019-05-11T07:47:38.151Z,24.70
2019-05-11T07:50:08.362Z,24.40
2019-05-11T07:52:37.827Z,24.00
2019-05-11T07:55:08.549Z,24.10
2019-05-11T07:57:39.075Z,24.40
2019-05-11T08:00:08.703Z,21.80
2019-05-11T08:02:38.728Z,22.60
2019-05-11T08:05:08.706Z,23.50
2019-05-11T08:07:37.936Z,23.30
2019-05-11T08:10:08.425Z,22.90
2019-05-11T08:12:39.149Z,23.40
2019-05-11T08:15:12.479Z,22.00
2019-05-11T08:17:38.249Z,20.40
2019-05-11T08:20:08.428Z,18.20
2019-05-11T08:22:37.819Z,18.50
2019-05-11T08:25:09.197Z,21.20
2019-05-11T08:27:38.012Z,21.40
2019-05-11T08:30:11.543Z,19.40
2019-05-11T08:32:40.246Z,20.60
2019-05-11T08:35:09.647Z,22.30
2019-05-11T08:37:38.921Z,25.60
2019-05-11T08:40:08.150Z,25.20
2019-05-11T08:42:37.887Z,22.20
2019-05-11T08:45:18.783Z,21.80
2019-05-11T08:47:37.850Z,23.70
2019-05-11T08:50:08.179Z,26.00
2019-05-11T08:52:38.717Z,25.40
2019-05-11T08:55:08.477Z,23.80
2019-05-11T08:57:38.775Z,22.00
2019-05-11T09:00:10.619Z,21.80
2019-05-11T09:02:39.324Z,21.50
2019-05-11T09:05:08.340Z,20.20
2019-05-11T09:07:38.380Z,19.40
2019-05-11T09:10:08.278Z,19.10
2019-05-11T09:12:38.205Z,18.80
2019-05-11T09:15:08.725Z,17.70
2019-05-11T09:17:38.266Z,17.30
2019-05-11T09:20:08.781Z,17.50
2019-05-11T09:22:38.225Z,18.90
2019-05-11T09:25:08.939Z,19.20
2019-05-11T09:27:37.841Z,17.80
2019-05-11T09:30:08.351Z,17.80
2019-05-11T09:32:38.522Z,19.60
2019-05-11T09:35:08.416Z,21.00
2019-05-11T09:37:38.073Z,21.60
2019-05-11T09:40:07.860Z,21.40
2019-05-11T09:42:38.915Z,24.00
2019-05-11T09:45:08.023Z,22.60
2019-05-11T09:47:38.593Z,23.60
2019-05-11T09:50:08.558Z,21.40
2019-05-11T09:52:38.514Z,22.10
2019-05-11T09:55:08.920Z,22.20
2019-05-11T09:57:38.277Z,19.80
2019-05-11T10:00:08.722Z,18.60
2019-05-11T10:02:38.694Z,18.50
2019-05-11T10:05:08.653Z,19.10
2019-05-11T10:07:38.114Z,20.50
2019-05-11T10:10:09.273Z,20.90
2019-05-11T10:12:38.396Z,22.40
2019-05-11T10:15:08.579Z,22.90
2019-05-11T10:17:38.300Z,22.70
2019-05-11T10:20:09.204Z,22.10
2019-05-11T10:22:38.601Z,21.70
2019-05-11T10:25:09.229Z,20.60
2019-05-11T10:27:39.500Z,20.20
2019-05-11T10:30:09.205Z,20.00
2019-05-11T10:32:38.179Z,20.00
2019-05-11T10:35:08.058Z,19.90
2019-05-11T10:37:38.982Z,21.30
2019-05-11T10:40:09.534Z,21.50
2019-05-11T10:42:38.420Z,23.10
2019-05-11T10:45:09.078Z,23.40
2019-05-11T10:47:38.903Z,22.30
2019-05-11T10:50:08.756Z,23.50
2019-05-11T10:52:38.004Z,23.30
2019-05-11T10:55:08.721Z,24.20
2019-05-11T10:57:38.665Z,24.30
2019-05-11T11:00:09.643Z,22.90
2019-05-11T11:02:38.560Z,23.30
2019-05-11T11:05:08.226Z,23.20
2019-05-11T11:07:38.338Z,20.90
2019-05-11T11:10:08.841Z,21.00
2019-05-11T11:12:38.498Z,22.20
2019-05-11T11:15:08.979Z,22.30
2019-05-11T11:17:38.381Z,22.70
2019-05-11T11:20:08.679Z,23.30
2019-05-11T11:22:43.553Z,24.20
2019-05-11T11:25:08.373Z,23.70
2019-05-11T11:27:38.110Z,22.90
2019-05-11T11:30:09.141Z,22.40
2019-05-11T11:32:38.390Z,23.20
2019-05-11T11:35:08.520Z,24.40
2019-05-11T11:37:38.637Z,24.00
2019-05-11T11:40:08.768Z,23.80
2019-05-11T11:42:37.820Z,24.50
2019-05-11T11:45:08.457Z,23.80
2019-05-11T11:47:38.432Z,23.40
2019-05-11T11:50:09.154Z,22.90
2019-05-11T11:52:38.363Z,22.80
2019-05-11T11:55:08.713Z,22.90
2019-05-11T11:57:37.971Z,23.10
2019-05-11T12:00:09.094Z,22.20
2019-05-11T12:02:38.888Z,22.30
2019-05-11T12:05:08.792Z,22.50
2019-05-11T12:07:38.642Z,22.90
2019-05-11T12:10:08.688Z,23.40
2019-05-11T12:12:38.714Z,23.30
2019-05-11T12:15:08.864Z,22.50
2019-05-11T12:17:37.827Z,21.70
2019-05-11T12:20:09.010Z,22.00
2019-05-11T12:22:38.662Z,20.70
2019-05-11T12:25:08.068Z,19.90
2019-05-11T12:27:38.326Z,20.20
2019-05-11T12:30:09.091Z,21.10
2019-05-11T12:32:48.913Z,21.80
2019-05-11T12:35:18.327Z,21.80
2019-05-11T12:37:48.485Z,21.20
2019-05-11T12:40:18.351Z,21.60
2019-05-11T12:42:48.850Z,21.70
2019-05-11T12:45:18.300Z,20.90
2019-05-11T12:47:48.007Z,21.30
2019-05-11T12:50:18.621Z,19.00
2019-05-11T12:52:47.743Z,19.70
2019-05-11T12:55:17.929Z,20.60
2019-05-11T12:57:47.957Z,20.80
2019-05-11T13:00:17.834Z,20.10
2019-05-11T13:02:48.505Z,20.70
2019-05-11T13:05:18.009Z,21.30
2019-05-11T13:07:48.090Z,21.50
2019-05-11T13:10:17.878Z,21.80
2019-05-11T13:12:49.008Z,21.70
2019-05-11T13:15:17.610Z,21.70
2019-05-11T13:17:48.972Z,21.40
2019-05-11T13:20:18.047Z,21.00
2019-05-11T13:22:48.917Z,20.80
2019-05-11T13:25:17.698Z,21.00
2019-05-11T13:27:48.925Z,21.30
2019-05-11T13:30:18.408Z,21.00
2019-05-11T13:32:48.992Z,21.10
2019-05-11T13:35:17.985Z,21.40
2019-05-11T13:37:47.981Z,20.80
2019-05-11T13:40:18.517Z,20.60
2019-05-11T13:42:49.014Z,20.60
2019-05-11T13:45:18.533Z,20.50
2019-05-11T13:47:52.552Z,20.10
2019-05-11T13:50:18.097Z,20.00
2019-05-11T13:52:47.882Z,19.80
2019-05-11T13:55:18.194Z,19.60
2019-05-11T13:57:48.530Z,19.70
2019-05-11T14:00:17.986Z,19.80
2019-05-11T14:02:48.535Z,19.50
2019-05-11T14:05:18.074Z,19.60
2019-05-11T14:07:48.351Z,20.00
2019-05-11T14:10:18.096Z,19.70
2019-05-11T14:12:47.687Z,19.00
2019-05-11T14:15:18.629Z,18.80
2019-05-11T14:17:48.597Z,18.10
2019-05-11T14:20:18.953Z,18.30
2019-05-11T14:22:48.028Z,18.20
2019-05-11T14:25:18.535Z,18.10
2019-05-11T14:27:47.941Z,18.40
2019-05-11T14:30:18.423Z,18.00
2019-05-11T14:33:08.603Z,17.90
2019-05-11T14:35:38.445Z,17.70
2019-05-11T14:38:08.045Z,17.70
2019-05-11T14:40:38.707Z,17.80
2019-05-11T14:43:08.394Z,17.80
2019-05-11T14:45:38.111Z,17.60
2019-05-11T14:48:22.148Z,17.50
2019-05-11T14:50:38.668Z,17.40
2019-05-11T14:53:08.612Z,17.10
2019-05-11T14:55:38.111Z,17.10
2019-05-11T14:58:08.347Z,16.90
2019-05-11T15:00:39.178Z,17.10
2019-05-11T15:03:07.970Z,17.20
2019-05-11T15:05:37.917Z,17.10
2019-05-11T15:08:08.732Z,16.80
2019-05-11T15:10:38.252Z,16.90
2019-05-11T15:13:08.041Z,17.00
2019-05-11T15:15:39.221Z,17.00
2019-05-11T15:18:08.425Z,16.70
2019-05-11T15:20:38.744Z,16.90
2019-05-11T15:23:08.811Z,16.70
2019-05-11T15:25:38.355Z,16.70
2019-05-11T15:28:08.936Z,16.70
2019-05-11T15:30:38.016Z,16.70
2019-05-11T15:33:07.752Z,16.60
2019-05-11T15:35:37.795Z,16.50
2019-05-11T15:38:08.663Z,16.60
2019-05-11T15:40:38.302Z,16.20
2019-05-11T15:43:08.712Z,16.40
2019-05-11T15:45:57.863Z,16.40
2019-05-11T15:48:26.619Z,16.50
2019-05-11T15:50:57.680Z,16.10
2019-05-11T15:53:25.669Z,16.00
2019-05-11T15:55:54.379Z,16.00
2019-05-11T15:58:23.072Z,15.90
2019-05-11T16:00:51.853Z,15.70
2019-05-11T16:03:20.571Z,15.60
2019-05-11T16:05:49.271Z,15.60
2019-05-11T16:08:19.038Z,15.60
2019-05-11T16:10:48.853Z,15.60
2019-05-11T16:13:18.219Z,15.70
2019-05-11T16:15:47.806Z,15.80
2019-05-11T16:18:18.664Z,15.60
2019-05-11T16:20:49.906Z,15.60
2019-05-11T16:23:17.501Z,15.50
2019-05-11T16:25:48.941Z,15.50
2019-05-11T16:28:19.354Z,15.40
2019-05-11T16:30:48.315Z,15.30
2019-05-11T16:33:18.020Z,15.20
2019-05-11T16:35:48.941Z,15.20
2019-05-11T16:38:18.881Z,15.20
2019-05-11T16:40:48.086Z,15.20
2019-05-11T16:43:19.277Z,15.20
2019-05-11T16:45:50.734Z,15.10
2019-05-11T16:48:18.469Z,15.20
2019-05-11T16:50:47.374Z,15.10
2019-05-11T16:53:18.131Z,15.10
2019-05-11T16:55:48.670Z,14.80
2019-05-11T16:58:19.727Z,14.70
2019-05-11T17:00:48.988Z,14.80
2019-05-11T17:03:17.486Z,14.80
2019-05-11T17:05:48.280Z,14.70
2019-05-11T17:08:18.622Z,14.60
2019-05-11T17:10:59.049Z,14.50
2019-05-11T17:13:28.256Z,14.50
2019-05-11T17:15:58.339Z,14.40
2019-05-11T17:18:28.319Z,14.30
2019-05-11T17:20:58.455Z,14.30
2019-05-11T17:23:30.981Z,14.20
2019-05-11T17:25:57.995Z,14.10
2019-05-11T17:28:26.808Z,14.10
2019-05-11T17:30:55.514Z,14.00
2019-05-11T17:33:24.216Z,13.90
2019-05-11T17:35:52.909Z,13.80
2019-05-11T17:38:21.619Z,13.70
2019-05-11T17:40:50.317Z,13.60
2019-05-11T17:43:19.174Z,13.50
2019-05-11T17:45:48.127Z,13.40
2019-05-11T17:48:17.896Z,13.40
2019-05-11T17:50:46.769Z,13.30
2019-05-11T17:53:15.460Z,13.20
2019-05-11T17:55:44.163Z,13.10
2019-05-11T17:58:12.855Z,13.00
2019-05-11T18:00:41.634Z,12.90
2019-05-11T18:03:11.398Z,12.80
2019-05-11T18:05:40.560Z,12.70
2019-05-11T18:08:09.263Z,12.60
2019-05-11T18:10:38.437Z,12.60
2019-05-11T18:13:07.270Z,12.50
2019-05-11T18:15:37.857Z,12.40
2019-05-11T18:18:09.177Z,12.40
2019-05-11T18:20:38.065Z,12.30
2019-05-11T18:23:08.264Z,12.20
2019-05-11T18:25:38.956Z,12.00
2019-05-11T18:28:07.469Z,11.90
2019-05-11T18:30:38.589Z,11.80
2019-05-11T18:33:08.299Z,11.60
2019-05-11T18:35:36.970Z,11.50
2019-05-11T18:38:05.675Z,11.40
2019-05-11T18:40:34.619Z,11.30
2019-05-11T18:43:03.316Z,11.20
2019-05-11T18:45:32.067Z,11.00
2019-05-11T18:48:00.803Z,10.90
2019-05-11T18:50:31.219Z,10.90
2019-05-11T18:52:59.851Z,10.70
2019-05-11T18:55:28.672Z,10.70
2019-05-11T18:57:58.098Z,10.60
2019-05-11T19:00:27.654Z,10.50
2019-05-11T19:02:58.058Z,10.40
2019-05-11T19:05:29.017Z,10.30
2019-05-11T19:07:58.387Z,10.30
2019-05-11T19:10:27.787Z,10.10
2019-05-11T19:12:58.695Z,10.10
2019-05-11T19:15:27.036Z,10.00
2019-05-11T19:17:58.078Z,9.90
2019-05-11T19:20:28.335Z,9.80
2019-05-11T19:22:58.827Z,9.70
2019-05-11T19:25:26.971Z,9.50
2019-05-11T19:28:14.001Z,9.40
2019-05-11T19:30:42.931Z,9.40
2019-05-11T19:33:11.614Z,9.40
2019-05-11T19:35:40.307Z,9.40
2019-05-11T19:38:09.003Z,9.30
2019-05-11T19:40:38.616Z,9.20
2019-05-11T19:43:08.223Z,9.20
2019-05-11T19:45:38.476Z,9.20
2019-05-11T19:48:08.336Z,9.30
2019-05-11T19:50:40.305Z,9.20
2019-05-11T19:53:08.467Z,9.30
2019-05-11T19:55:37.299Z,9.20
2019-05-11T19:58:05.996Z,9.10
2019-05-11T20:00:34.691Z,9.10
2019-05-11T20:03:03.439Z,9.00
2019-05-11T20:05:32.169Z,8.90
2019-05-11T20:08:00.929Z,8.80
2019-05-11T20:10:29.619Z,8.80
2019-05-11T20:12:58.837Z,8.80
2019-05-11T20:15:27.717Z,8.70
2019-05-11T20:17:58.489Z,8.50
2019-05-11T20:20:28.432Z,8.40
2019-05-11T20:22:58.466Z,8.30
2019-05-11T20:25:28.772Z,8.30
2019-05-11T20:27:58.497Z,8.30
2019-05-11T20:30:27.348Z,8.30
2019-05-11T20:32:56.031Z,8.20
2019-05-11T20:35:24.787Z,8.20
2019-05-11T20:37:53.507Z,8.10
2019-05-11T20:40:22.195Z,8.10
2019-05-11T20:42:50.897Z,8.10
2019-05-11T20:45:19.579Z,8.00
2019-05-11T20:47:48.937Z,7.90
2019-05-11T20:50:18.438Z,7.90
2019-05-11T20:52:48.130Z,7.90
2019-05-11T20:55:18.179Z,7.80
2019-05-11T20:57:48.432Z,7.90
2019-05-11T21:00:18.742Z,7.90
2019-05-11T21:02:48.883Z,7.90
2019-05-11T21:05:18.402Z,7.90
2019-05-11T21:07:47.405Z,7.80
2019-05-11T21:10:16.542Z,7.80
2019-05-11T21:12:45.228Z,7.70
2019-05-11T21:15:14.023Z,7.60
2019-05-11T21:17:42.715Z,7.50
2019-05-11T21:20:11.507Z,7.40
2019-05-11T21:22:40.760Z,7.30
2019-05-11T21:25:10.309Z,7.20
2019-05-11T21:27:39.013Z,7.20
2019-05-11T21:30:09.935Z,7.20
2019-05-11T21:32:39.730Z,7.20
2019-05-11T21:35:09.167Z,7.20
2019-05-11T21:37:39.018Z,7.30
2019-05-11T21:40:09.027Z,7.20
2019-05-11T21:42:39.381Z,7.10
2019-05-11T21:45:10.002Z,6.90
2019-05-11T21:47:39.428Z,6.80
2019-05-11T21:50:09.616Z,6.70
2019-05-11T21:52:38.952Z,6.60
2019-05-11T21:55:09.716Z,6.60
2019-05-11T21:57:38.725Z,6.50
2019-05-11T22:00:09.216Z,6.40
2019-05-11T22:02:38.614Z,6.40
2019-05-11T22:05:09.193Z,6.20
2019-05-11T22:07:38.728Z,6.10
2019-05-11T22:10:09.637Z,6.00
2019-05-11T22:12:39.149Z,5.90
2019-05-11T22:15:09.825Z,5.90
2019-05-11T22:17:39.605Z,5.80
2019-05-11T22:20:09.839Z,5.70
2019-05-11T22:22:39.224Z,5.70
2019-05-11T22:25:09.235Z,5.70
2019-05-11T22:27:38.748Z,5.70
2019-05-11T22:30:08.816Z,5.60
2019-05-11T22:32:38.464Z,5.60
2019-05-11T22:35:08.983Z,5.50
2019-05-11T22:37:38.743Z,5.40
2019-05-11T22:40:08.823Z,5.30
2019-05-11T22:42:38.011Z,5.30
2019-05-11T22:47:39.801Z,5.20
2019-05-11T22:50:09.049Z,5.10
2019-05-11T22:52:40.297Z,5.10
2019-05-11T22:57:43.371Z,5.10
2019-05-11T23:00:12.555Z,4.90
2019-05-11T23:02:41.148Z,4.80
2019-05-11T23:05:09.939Z,4.90
2019-05-11T23:07:41.398Z,4.90
2019-05-11T23:10:10.975Z,4.90
2019-05-11T23:12:39.667Z,4.80
2019-05-11T23:15:10.903Z,4.80
2019-05-11T23:17:39.593Z,4.90
2019-05-11T23:20:09.089Z,5.00
2019-05-11T23:22:57.529Z,5.10
2019-05-11T23:25:20.647Z,5.10
2019-05-11T23:27:49.533Z,5.20
2019-05-11T23:30:20.391Z,5.30
2019-05-11T23:32:49.827Z,5.30
2019-05-11T23:35:19.177Z,5.50
2019-05-11T23:37:49.467Z,5.50
2019-05-11T23:40:20.152Z,5.50
2019-05-11T23:42:49.403Z,5.60
2019-05-11T23:45:19.012Z,5.50
2019-05-11T23:47:48.849Z,5.50
2019-05-11T23:50:18.883Z,5.60
2019-05-11T23:52:50.307Z,5.50
2019-05-11T23:55:19.357Z,5.50
2019-05-11T23:57:49.044Z,5.50
